createdAt,value
2023-01-27T00:00:52.670Z,566.00
2023-01-27T00:01:52.651Z,566.00
2023-01-27T00:02:52.831Z,563.00
2023-01-27T00:03:52.636Z,571.00
2023-01-27T00:04:52.607Z,569.00
2023-01-27T00:05:52.580Z,563.00
2023-01-27T00:06:52.561Z,563.00
2023-01-27T00:07:52.541Z,570.00
2023-01-27T00:08:52.529Z,570.00
2023-01-27T00:09:52.518Z,565.00
2023-01-27T00:10:52.496Z,568.00
2023-01-27T00:11:52.476Z,569.00
2023-01-27T00:12:52.450Z,569.00
2023-01-27T00:13:52.436Z,567.00
2023-01-27T00:14:52.411Z,570.00
2023-01-27T00:15:52.407Z,570.00
2023-01-27T00:16:52.366Z,570.00
2023-01-27T00:17:52.377Z,570.00
2023-01-27T00:18:52.324Z,570.00
2023-01-27T00:19:52.303Z,566.00
2023-01-27T00:20:52.304Z,567.00
2023-01-27T00:21:52.267Z,564.00
2023-01-27T00:22:52.250Z,570.00
2023-01-27T00:23:52.299Z,564.00
2023-01-27T00:24:52.204Z,570.00
2023-01-27T00:25:52.173Z,567.00
2023-01-27T00:26:52.158Z,571.00
2023-01-27T00:27:52.138Z,571.00
2023-01-27T00:28:52.120Z,567.00
2023-01-27T00:29:52.072Z,565.00
2023-01-27T00:30:52.194Z,569.00
2023-01-27T00:31:52.107Z,569.00
2023-01-27T00:32:51.999Z,569.00
2023-01-27T00:33:51.977Z,569.00
2023-01-27T00:34:51.965Z,568.00
2023-01-27T00:35:51.951Z,572.00
2023-01-27T00:36:51.925Z,569.00
2023-01-27T00:37:51.903Z,572.00
2023-01-27T00:38:51.885Z,564.00
2023-01-27T00:39:51.864Z,570.00
2023-01-27T00:40:51.843Z,570.00
2023-01-27T00:41:51.810Z,566.00
2023-01-27T00:42:51.787Z,569.00
2023-01-27T00:43:51.750Z,574.00
2023-01-27T00:44:51.720Z,571.00
2023-01-27T00:45:51.694Z,573.00
2023-01-27T00:46:51.705Z,571.00
2023-01-27T00:47:51.660Z,567.00
2023-01-27T00:48:51.626Z,574.00
2023-01-27T00:49:51.610Z,572.00
2023-01-27T00:50:51.584Z,573.00
2023-01-27T00:51:51.565Z,570.00
2023-01-27T00:52:51.532Z,568.00
2023-01-27T06:58:46.288Z,611.00
2023-01-27T06:59:46.263Z,621.00
2023-01-27T07:00:46.253Z,626.00
2023-01-27T07:01:46.265Z,632.00
2023-01-27T07:02:46.249Z,636.00
2023-01-27T07:03:46.195Z,646.00
2023-01-27T07:06:46.154Z,681.00
2023-01-27T07:07:46.108Z,706.00
2023-01-27T07:08:46.103Z,707.00
2023-01-27T07:09:52.425Z,712.00
2023-01-27T07:10:47.059Z,709.00
2023-01-27T07:11:46.027Z,718.00
2023-01-27T07:12:46.018Z,748.00
2023-01-27T07:13:45.971Z,784.00
2023-01-27T07:14:45.945Z,843.00
2023-01-27T07:15:45.919Z,886.00
2023-01-27T07:16:45.910Z,911.00
2023-01-27T07:17:45.867Z,974.00
2023-01-27T07:18:45.840Z,1093.00
2023-01-27T07:19:45.826Z,1244.00
2023-01-27T07:20:45.788Z,1285.00
2023-01-27T07:21:45.847Z,1269.00
2023-01-27T07:22:45.782Z,1280.00
2023-01-27T07:23:45.720Z,1265.00
2023-01-27T07:24:45.712Z,1287.00
2023-01-27T07:25:45.684Z,1291.00
2023-01-27T07:26:45.683Z,1292.00
2023-01-27T07:27:45.722Z,1284.00
2023-01-27T07:28:45.654Z,1315.00
2023-01-27T07:29:45.635Z,1317.00
2023-01-27T07:30:45.649Z,1320.00
2023-01-27T07:31:46.356Z,1323.00
2023-01-27T07:32:45.687Z,1340.00
2023-01-27T07:33:45.557Z,1365.00
2023-01-27T07:34:45.530Z,1366.00
2023-01-27T07:35:45.554Z,1376.00
2023-01-27T07:36:45.548Z,1400.00
2023-01-27T07:37:45.478Z,1404.00
2023-01-27T07:38:45.429Z,1428.00
2023-01-27T07:39:45.644Z,1436.00
2023-01-27T07:40:45.825Z,1439.00
2023-01-27T07:41:45.367Z,1461.00
2023-01-27T07:42:45.358Z,1478.00
2023-01-27T07:43:45.341Z,1470.00
2023-01-27T07:44:45.308Z,1449.00
2023-01-27T07:45:45.361Z,1441.00
2023-01-27T07:46:45.300Z,1428.00
2023-01-27T07:47:45.290Z,1431.00
2023-01-27T07:48:45.238Z,1368.00
2023-01-27T07:49:45.209Z,1355.00
2023-01-27T07:50:45.180Z,1326.00
2023-01-27T07:51:45.159Z,1244.00
2023-01-27T07:52:45.163Z,1234.00
2023-01-27T07:53:45.183Z,1172.00
2023-01-27T07:54:45.085Z,1177.00
2023-01-27T07:55:45.078Z,1172.00
2023-01-27T07:56:45.062Z,1159.00
2023-01-27T07:57:45.044Z,1077.00
2023-01-27T07:58:45.091Z,1088.00
2023-01-27T07:59:45.024Z,1086.00
2023-01-27T08:00:45.114Z,1063.00
2023-01-27T08:01:47.176Z,1080.00
2023-01-27T08:02:44.955Z,1082.00
2023-01-27T08:03:44.932Z,1027.00
2023-01-27T08:04:52.923Z,985.00
2023-01-27T08:05:45.915Z,986.00
2023-01-27T08:06:44.894Z,989.00
2023-01-27T08:07:44.868Z,994.00
2023-01-27T08:08:44.861Z,982.00
2023-01-27T08:09:44.838Z,934.00
2023-01-27T08:10:44.832Z,902.00
2023-01-27T08:11:44.832Z,907.00
2023-01-27T08:12:44.829Z,918.00
2023-01-27T08:13:44.819Z,912.00
2023-01-27T08:14:44.779Z,912.00
2023-01-27T08:15:44.806Z,869.00
2023-01-27T08:16:44.786Z,836.00
2023-01-27T08:17:44.765Z,849.00
2023-01-27T08:18:44.740Z,837.00
2023-01-27T08:19:44.739Z,829.00
2023-01-27T08:20:46.121Z,813.00
2023-01-27T08:21:44.717Z,764.00
2023-01-27T08:22:44.713Z,791.00
2023-01-27T08:23:44.697Z,770.00
2023-01-27T08:24:44.684Z,801.00
2023-01-27T08:25:44.667Z,764.00
2023-01-27T08:26:44.716Z,748.00
2023-01-27T08:59:44.873Z,553.00
2023-01-27T09:09:44.222Z,1184.00
2023-01-27T09:10:44.211Z,1183.00
2023-01-27T09:11:44.218Z,1277.00
2023-01-27T09:12:44.216Z,1191.00
2023-01-27T09:13:44.210Z,1162.00
2023-01-27T09:14:44.251Z,1136.00
2023-01-27T09:15:52.643Z,991.00
2023-01-27T09:16:44.216Z,818.00
2023-01-27T14:37:38.649Z,1172.00
2023-01-27T14:38:38.640Z,1165.00
2023-01-27T14:39:38.609Z,1162.00
2023-01-27T14:40:38.593Z,1154.00
2023-01-27T14:41:38.582Z,1140.00
2023-01-27T14:42:38.550Z,1154.00
2023-01-27T14:43:38.559Z,1135.00
2023-01-27T14:44:44.106Z,1134.00
2023-01-27T14:45:39.508Z,1135.00
2023-01-27T14:46:38.513Z,1135.00
2023-01-27T14:47:38.496Z,1140.00
2023-01-27T14:48:38.454Z,1144.00
2023-01-27T14:49:38.427Z,1135.00
2023-01-27T14:50:38.420Z,1130.00
2023-01-27T14:51:38.394Z,1120.00
2023-01-27T14:52:38.380Z,1116.00
2023-01-27T14:53:38.357Z,1121.00
2023-01-27T14:54:38.336Z,1141.00
2023-01-27T14:55:38.327Z,1090.00
2023-01-27T14:56:38.356Z,1112.00
2023-01-27T14:57:38.283Z,1105.00
2023-01-27T14:58:38.267Z,1114.00
2023-01-27T14:59:38.236Z,1113.00
2023-01-27T15:00:38.270Z,1102.00
2023-01-27T15:01:38.244Z,1087.00
2023-01-27T15:02:38.201Z,1085.00
2023-01-27T15:03:38.169Z,1105.00
2023-01-27T15:04:38.146Z,1106.00
2023-01-27T15:05:38.141Z,1106.00
2023-01-27T15:06:38.112Z,1073.00
2023-01-27T15:07:38.108Z,1091.00
2023-01-27T15:08:38.113Z,1100.00
2023-01-27T15:09:38.080Z,1093.00
2023-01-27T15:10:38.051Z,1109.00
2023-01-27T15:11:38.047Z,1084.00
2023-01-27T15:12:38.032Z,1059.00
2023-01-27T15:13:38.031Z,1055.00
2023-01-27T15:14:37.984Z,1073.00
2023-01-27T15:15:37.959Z,1091.00
2023-01-27T15:16:38.002Z,1086.00
2023-01-27T15:17:37.928Z,1071.00
2023-01-27T15:18:37.914Z,1056.00
2023-01-27T15:19:37.889Z,1063.00
2023-01-27T15:20:37.868Z,1069.00
2023-01-27T15:21:37.858Z,1074.00
2023-01-27T15:22:37.859Z,1065.00
2023-01-27T15:23:37.825Z,1041.00
2023-01-27T15:24:37.807Z,1036.00
2023-01-27T15:25:37.795Z,1039.00
2023-01-27T15:26:37.768Z,1045.00
2023-01-27T15:27:37.776Z,1032.00
2023-01-27T15:28:37.748Z,1039.00
2023-01-27T15:29:37.722Z,1028.00
2023-01-27T15:30:37.699Z,1035.00
2023-01-27T15:31:37.761Z,1035.00
2023-01-27T15:32:37.816Z,1040.00
2023-01-27T15:33:37.646Z,1020.00
2023-01-27T15:34:37.656Z,1025.00
2023-01-27T15:35:37.621Z,1026.00
2023-01-27T15:36:37.601Z,1020.00
2023-01-27T15:37:37.583Z,1026.00
2023-01-27T15:38:37.563Z,1033.00
2023-01-27T15:39:42.519Z,1026.00
2023-01-27T15:40:38.522Z,1026.00
2023-01-27T15:41:37.490Z,1026.00
2023-01-27T15:42:37.487Z,1029.00
2023-01-27T15:43:37.448Z,1019.00
2023-01-27T15:44:37.426Z,1026.00
2023-01-27T15:45:37.446Z,1027.00
2023-01-27T15:46:37.399Z,1009.00
2023-01-27T15:47:37.370Z,1012.00
2023-01-27T15:48:37.358Z,1033.00
2023-01-27T15:49:37.330Z,1021.00
2023-01-27T15:50:37.326Z,1007.00
2023-01-27T15:51:37.309Z,996.00
2023-01-27T15:52:37.294Z,986.00
2023-01-27T15:53:37.265Z,1017.00
2023-01-27T15:54:37.272Z,1009.00
2023-01-27T15:55:37.242Z,993.00
2023-01-27T15:56:37.233Z,976.00
2023-01-27T15:57:37.209Z,994.00
2023-01-27T15:58:37.200Z,989.00
2023-01-27T15:59:38.958Z,1009.00
2023-01-27T16:00:37.189Z,997.00
2023-01-27T16:01:37.170Z,979.00
2023-01-27T16:02:37.140Z,981.00
2023-01-27T16:03:37.107Z,991.00
2023-01-27T16:04:37.106Z,982.00
2023-01-27T16:05:37.166Z,980.00
2023-01-27T16:06:37.050Z,977.00
2023-01-27T16:07:37.051Z,967.00
2023-01-27T16:08:37.024Z,969.00
2023-01-27T16:09:37.014Z,963.00
2023-01-27T16:10:36.997Z,964.00
2023-01-27T16:11:36.962Z,984.00
2023-01-27T16:12:36.961Z,970.00
2023-01-27T16:13:36.929Z,970.00
2023-01-27T16:14:36.921Z,958.00
2023-01-27T16:15:36.911Z,950.00
2023-01-27T16:16:36.928Z,975.00
2023-01-27T16:48:36.404Z,937.00
2023-01-27T16:49:36.447Z,926.00
2023-01-27T16:50:36.375Z,929.00
2023-01-27T16:51:36.336Z,926.00
2023-01-27T16:52:42.016Z,929.00
2023-01-27T16:53:37.311Z,929.00
2023-01-27T16:54:36.282Z,929.00
2023-01-27T16:55:36.278Z,928.00
2023-01-27T16:56:36.244Z,935.00
2023-01-27T16:57:36.238Z,918.00
2023-01-27T16:58:46.045Z,917.00
2023-01-27T16:59:37.237Z,918.00
2023-01-27T17:00:36.227Z,919.00
2023-01-27T17:01:36.207Z,920.00
2023-01-27T17:02:36.148Z,922.00
2023-01-27T17:03:36.145Z,930.00
2023-01-27T17:04:36.118Z,926.00
2023-01-27T17:05:36.099Z,915.00
2023-01-27T17:06:36.140Z,917.00
2023-01-27T17:07:36.059Z,923.00
2023-01-27T17:08:36.073Z,917.00
2023-01-27T17:09:36.018Z,904.00
2023-01-27T17:10:36.006Z,903.00
2023-01-27T17:11:35.991Z,896.00
2023-01-27T17:12:35.962Z,902.00
2023-01-27T17:13:35.946Z,904.00
2023-01-27T17:14:35.935Z,914.00
2023-01-27T17:15:35.905Z,910.00
2023-01-27T17:16:35.950Z,910.00
2023-01-27T17:17:35.873Z,905.00
2023-01-27T17:18:50.916Z,909.00
2023-01-27T17:19:36.870Z,909.00
2023-01-27T17:20:35.831Z,910.00
2023-01-27T17:21:35.806Z,905.00
2023-01-27T17:22:35.811Z,900.00
2023-01-27T17:23:35.778Z,906.00
2023-01-27T17:24:35.778Z,906.00
2023-01-27T17:25:35.743Z,903.00
2023-01-27T17:26:35.754Z,890.00
2023-01-27T17:27:35.752Z,892.00
2023-01-27T17:28:35.723Z,892.00
2023-01-27T17:29:35.714Z,885.00
2023-01-27T17:30:35.794Z,891.00
2023-01-27T17:31:35.812Z,872.00
2023-01-27T17:32:35.683Z,879.00
2023-01-27T17:33:35.669Z,889.00
2023-01-27T17:34:35.654Z,886.00
2023-01-27T17:35:35.637Z,874.00
2023-01-27T17:36:35.622Z,889.00
2023-01-27T17:37:35.605Z,877.00
2023-01-27T17:38:35.592Z,898.00
2023-01-27T17:39:35.577Z,879.00
2023-01-27T17:40:35.571Z,884.00
2023-01-27T17:41:35.570Z,900.00
2023-01-27T17:42:35.558Z,879.00
2023-01-27T17:43:35.545Z,875.00
2023-01-27T17:44:35.547Z,861.00
2023-01-27T17:45:35.516Z,868.00
2023-01-27T17:46:35.532Z,875.00
2023-01-27T17:47:35.500Z,882.00
2023-01-27T17:48:35.504Z,869.00
2023-01-27T17:49:35.504Z,842.00
2023-01-27T17:50:35.492Z,844.00
2023-01-27T17:51:35.474Z,842.00
2023-01-27T17:52:35.475Z,881.00
2023-01-27T17:53:35.464Z,879.00
2023-01-27T17:54:35.475Z,838.00
2023-01-27T17:55:35.453Z,851.00
2023-01-27T17:56:35.449Z,877.00
2023-01-27T17:57:35.443Z,866.00
2023-01-27T17:58:35.418Z,864.00
2023-01-27T17:59:35.403Z,872.00
2023-01-27T18:00:35.396Z,838.00
2023-01-27T18:01:35.425Z,847.00
2023-01-27T18:02:35.409Z,849.00
2023-01-27T18:03:35.361Z,863.00
2023-01-27T18:04:35.362Z,853.00
2023-01-27T18:05:35.341Z,863.00
2023-01-27T18:06:35.340Z,849.00
2023-01-27T18:07:35.332Z,829.00
2023-01-27T18:08:35.316Z,848.00
2023-01-27T18:09:35.316Z,829.00
2023-01-27T18:10:35.303Z,821.00
2023-01-27T18:11:35.273Z,815.00
2023-01-27T18:12:35.260Z,847.00
2023-01-27T18:13:35.236Z,853.00
2023-01-27T18:14:35.212Z,858.00
2023-01-27T18:15:35.200Z,821.00
2023-01-27T18:16:35.187Z,832.00
2023-01-27T18:17:35.173Z,805.00
2023-01-27T18:18:35.153Z,851.00
2023-01-27T18:19:35.141Z,860.00
2023-01-27T18:20:35.134Z,831.00
2023-01-27T18:21:35.110Z,809.00
2023-01-27T18:22:35.096Z,816.00
2023-01-27T18:23:35.093Z,808.00
2023-01-27T18:24:35.056Z,836.00
2023-01-27T18:25:35.054Z,843.00
2023-01-27T18:26:35.032Z,820.00
2023-01-27T18:27:35.023Z,853.00
2023-01-27T18:28:35.008Z,829.00
2023-01-27T18:29:35.010Z,831.00
2023-01-27T18:30:35.022Z,817.00
2023-01-27T18:31:35.052Z,817.00
2023-01-27T18:32:34.967Z,818.00
2023-01-27T18:33:34.946Z,850.00
2023-01-27T18:34:34.941Z,813.00
2023-01-27T18:35:34.916Z,814.00
2023-01-27T18:36:34.882Z,799.00
2023-01-27T18:37:34.864Z,808.00
2023-01-27T18:38:34.846Z,840.00
2023-01-27T18:39:34.836Z,796.00
2023-01-27T18:40:34.819Z,803.00
2023-01-27T18:41:34.855Z,819.00
2023-01-27T18:42:34.803Z,796.00
2023-01-27T18:43:34.797Z,798.00
2023-01-27T18:44:34.785Z,798.00
2023-01-27T18:45:34.774Z,797.00
2023-01-27T18:46:34.793Z,798.00
2023-01-27T18:47:34.753Z,802.00
2023-01-27T18:48:34.734Z,810.00
2023-01-27T18:49:34.756Z,811.00
2023-01-27T18:50:34.712Z,809.00
2023-01-27T18:51:34.691Z,799.00
2023-01-27T18:52:34.668Z,810.00
2023-01-27T18:53:34.665Z,791.00
2023-01-27T20:43:35.587Z,709.00
2023-01-27T20:44:33.437Z,711.00
2023-01-27T20:45:33.438Z,713.00
2023-01-27T20:46:33.448Z,693.00
2023-01-27T20:47:33.417Z,706.00
2023-01-27T20:48:33.404Z,692.00
2023-01-27T20:49:33.422Z,709.00
2023-01-27T20:50:33.394Z,691.00
2023-01-27T20:51:33.395Z,692.00
2023-01-27T20:52:33.375Z,695.00
2023-01-27T20:53:33.367Z,696.00
2023-01-27T20:54:33.350Z,700.00
2023-01-27T20:55:33.331Z,692.00
2023-01-27T20:56:33.317Z,694.00
2023-01-27T20:57:33.318Z,694.00
2023-01-27T20:58:33.303Z,703.00
2023-01-27T20:59:33.285Z,701.00
2023-01-27T21:00:33.261Z,692.00
2023-01-27T21:01:33.345Z,695.00
2023-01-27T21:02:33.263Z,698.00
2023-01-27T21:03:33.226Z,686.00
2023-01-27T21:04:33.212Z,698.00
2023-01-27T21:05:33.196Z,697.00
2023-01-27T21:06:33.176Z,699.00
2023-01-27T21:07:33.190Z,690.00
2023-01-27T21:08:33.160Z,698.00
2023-01-27T21:09:33.151Z,691.00
2023-01-27T21:10:33.147Z,694.00
2023-01-27T21:11:33.140Z,693.00
2023-01-27T21:12:33.137Z,699.00
2023-01-27T21:13:33.206Z,689.00
2023-01-27T21:14:33.140Z,690.00
2023-01-27T21:15:33.105Z,687.00
2023-01-27T21:16:33.108Z,684.00
2023-01-27T21:17:33.086Z,695.00
2023-01-27T21:18:33.085Z,701.00
2023-01-27T21:19:33.067Z,698.00
2023-01-27T21:20:33.050Z,688.00
2023-01-27T21:21:33.030Z,682.00
2023-01-27T21:22:33.019Z,678.00
2023-01-27T21:23:33.023Z,686.00
2023-01-27T21:24:32.999Z,681.00
2023-01-27T21:25:32.969Z,695.00
2023-01-27T21:26:33.028Z,670.00
2023-01-27T21:27:32.940Z,677.00
2023-01-27T21:28:32.923Z,681.00
2023-01-27T21:29:33.033Z,688.00
2023-01-27T21:30:32.903Z,672.00
2023-01-27T21:31:33.023Z,690.00
2023-01-27T21:32:32.884Z,671.00
2023-01-27T21:33:32.874Z,682.00
2023-01-27T21:34:32.853Z,677.00
2023-01-27T21:35:32.845Z,674.00
2023-01-27T21:36:32.838Z,679.00
2023-01-27T21:37:32.813Z,683.00
2023-01-27T21:38:32.804Z,671.00
2023-01-27T21:39:32.786Z,666.00
2023-01-27T21:40:32.768Z,672.00
2023-01-27T21:41:32.789Z,684.00
2023-01-27T21:42:32.773Z,687.00
2023-01-27T21:43:32.749Z,667.00
2023-01-27T21:44:32.745Z,670.00
2023-01-27T21:45:32.758Z,677.00
2023-01-27T21:46:32.839Z,684.00
2023-01-27T21:47:32.729Z,688.00
2023-01-27T21:48:32.719Z,680.00
2023-01-27T21:49:32.698Z,671.00
2023-01-27T21:50:32.687Z,674.00
2023-01-27T21:51:32.695Z,675.00
2023-01-27T21:52:32.693Z,675.00
2023-01-27T21:53:32.661Z,680.00
2023-01-27T21:54:32.657Z,680.00
2023-01-27T21:55:32.656Z,675.00
2023-01-27T21:56:32.643Z,675.00
2023-01-27T21:57:32.637Z,667.00
2023-01-27T21:58:32.630Z,670.00
2023-01-27T21:59:32.627Z,684.00
2023-01-27T22:00:32.651Z,669.00
2023-01-27T22:01:32.611Z,665.00
2023-01-27T22:02:32.603Z,667.00
2023-01-27T22:03:32.599Z,667.00
2023-01-27T22:04:32.612Z,668.00
2023-01-27T22:05:32.578Z,664.00
2023-01-27T22:06:32.572Z,659.00
2023-01-27T22:07:32.566Z,662.00
2023-01-27T22:08:32.566Z,667.00
2023-01-27T22:09:32.533Z,667.00
2023-01-27T22:10:32.523Z,665.00
2023-01-27T22:11:32.535Z,666.00
2023-01-27T22:12:32.491Z,658.00
2023-01-27T22:13:32.495Z,664.00
2023-01-27T22:14:32.483Z,665.00
2023-01-27T22:15:32.466Z,664.00
2023-01-27T22:16:32.517Z,671.00
2023-01-27T22:17:32.432Z,664.00
2023-01-27T22:18:32.434Z,669.00
2023-01-27T22:19:32.415Z,672.00
2023-01-27T22:20:32.402Z,666.00
2023-01-27T22:21:32.379Z,667.00
2023-01-27T22:22:32.375Z,665.00
2023-01-27T22:23:32.363Z,662.00
2023-01-27T22:24:32.340Z,661.00
2023-01-27T22:25:32.329Z,664.00
2023-01-27T22:26:32.336Z,660.00
2023-01-27T22:27:32.308Z,665.00
2023-01-27T22:28:32.328Z,663.00
2023-01-27T22:29:32.279Z,661.00
2023-01-27T22:30:32.290Z,663.00
2023-01-27T22:31:32.247Z,660.00
2023-01-27T22:32:32.261Z,663.00
2023-01-27T22:33:32.263Z,665.00
2023-01-27T22:34:32.228Z,662.00
2023-01-27T22:35:32.213Z,665.00
2023-01-27T22:36:32.219Z,665.00
2023-01-27T22:37:32.201Z,665.00
2023-01-27T22:38:32.195Z,665.00
2023-01-27T22:39:32.169Z,665.00
2023-01-27T22:40:32.158Z,666.00
2023-01-27T22:41:32.149Z,667.00
2023-01-27T22:42:32.141Z,667.00
2023-01-27T22:43:32.132Z,663.00
2023-01-27T22:44:32.124Z,660.00
2023-01-27T22:45:32.162Z,664.00
2023-01-27T22:46:32.101Z,658.00
2023-01-27T22:47:32.086Z,658.00
2023-01-27T22:48:32.073Z,664.00
2023-01-27T22:49:32.052Z,670.00
2023-01-27T22:50:32.049Z,666.00
2023-01-27T22:51:32.030Z,662.00
2023-01-27T22:52:32.035Z,663.00
2023-01-27T22:53:32.025Z,662.00
2023-01-27T22:54:32.031Z,662.00
2023-01-27T22:55:32.002Z,661.00
2023-01-27T22:56:32.007Z,663.00
2023-01-27T22:57:32.002Z,662.00
2023-01-27T22:58:32.000Z,661.00
2023-01-27T22:59:31.995Z,662.00
2023-01-27T23:00:31.972Z,661.00
2023-01-27T23:01:32.028Z,664.00
2023-01-27T23:02:31.993Z,665.00
2023-01-27T23:03:31.988Z,662.00
2023-01-27T23:04:31.944Z,663.00
2023-01-27T23:05:31.923Z,658.00
2023-01-27T23:06:31.919Z,664.00
2023-01-27T23:07:31.909Z,662.00
2023-01-27T23:08:32.741Z,659.00
2023-01-27T23:09:31.876Z,661.00
2023-01-27T23:10:31.864Z,661.00
2023-01-27T23:11:31.860Z,660.00
2023-01-27T23:12:31.855Z,662.00
2023-01-27T23:13:31.856Z,663.00
2023-01-27T23:14:31.845Z,658.00
2023-01-27T23:15:31.829Z,660.00
2023-01-27T23:16:31.942Z,659.00
2023-01-27T23:17:31.821Z,659.00
2023-01-27T23:18:31.814Z,659.00
2023-01-27T23:19:31.805Z,660.00
2023-01-27T23:20:31.805Z,661.00
2023-01-27T23:21:31.774Z,659.00
2023-01-27T23:22:31.761Z,660.00
2023-01-27T23:23:31.749Z,661.00
2023-01-27T23:24:31.859Z,662.00
2023-01-27T23:25:31.737Z,665.00
2023-01-27T23:26:31.725Z,661.00
2023-01-27T23:27:31.711Z,663.00
2023-01-27T23:28:31.714Z,662.00
2023-01-27T23:29:31.714Z,664.00
2023-01-27T23:30:31.703Z,662.00
2023-01-27T23:31:31.770Z,658.00
2023-01-27T23:32:31.651Z,659.00
2023-01-27T23:33:31.635Z,662.00
2023-01-27T23:34:31.627Z,658.00
2023-01-27T23:35:31.609Z,660.00
2023-01-27T23:36:31.616Z,660.00
2023-01-27T23:37:31.620Z,656.00
2023-01-27T23:38:33.078Z,658.00
2023-01-27T23:39:31.578Z,661.00
2023-01-27T23:40:31.564Z,659.00
2023-01-27T23:41:31.547Z,655.00
2023-01-27T23:42:31.533Z,658.00
2023-01-27T23:43:31.536Z,660.00
2023-01-27T23:44:31.528Z,658.00
2023-01-27T23:45:31.491Z,656.00
2023-01-27T23:46:31.551Z,659.00
2023-01-27T23:47:31.476Z,660.00
2023-01-27T23:48:31.477Z,654.00
2023-01-27T23:49:31.482Z,657.00
2023-01-27T23:50:31.443Z,655.00
2023-01-27T23:51:31.428Z,657.00
2023-01-27T23:52:31.410Z,658.00
2023-01-27T23:53:31.421Z,654.00
2023-01-27T23:54:31.400Z,655.00
2023-01-27T23:55:31.370Z,654.00
2023-01-27T23:56:31.364Z,655.00
2023-01-27T23:57:31.341Z,655.00
2023-01-27T23:58:31.338Z,658.00
2023-01-27T23:59:31.338Z,655.00
